Airfield :







YOU CAN JOIN US ON...

 
LOGIN :

Register | Disclaimer

   EN    FR    IT 

 









Legend :    VFR   Marginal VFR   IFR   Intensive IFR   Very Intensive IFR
Visi :
Ceiling :
>= 8 km
>= 3000ft
5 to 8 km
1000 to 3000 ft
1500m to 5 km
500 to 1000 ft
800 to 1500m
200 to 500 ft
< 800m
< 200 ft
Symbols :   Thunderstorms  Fog  Heavy snow  Heavy precipitations  Wind > 20 kt






- Airport Elevation : 118 ft
- IATA code : YUL


CYUL - Montréal - Pierre-Elliott-Trudeau Int.

CURRENT METAR :
  • 200100Z 35007KT 15SM BKN038 M10/M16 A3002 RMK SC7 SLP170

EXPIRED METARs :
  • 200000Z 35009G15KT 15SM FEW013 BKN033 M10/M16 A2999 RMK SC1SC7 SC TR SLP159
  • 192353Z 36010KT 15SM FEW013 BKN030 BKN110 M10/M16 A2999 RMK SC1SC6AC1 SC TR SLP158
  • 192339Z 01015G20KT 7SM -SN FEW015 OVC033 M11/M14 A2997 RMK SC2SC6 SLP154
  • 192313Z 01008KT 2 1/2SM -SN BKN013 OVC040 M09/M12 A2995 RMK SC6SC2 PRESRR SLP146
  • 192224Z 31004KT 15SM -SN BKN040 OVC110 M09/M13 A2991 RMK SC6AC2 SLP134

TAF TAF CYUL
Valid from the 20 at 00:00 until the 21 at 00:00 UTC


192338Z 2000/2024 34008KT P6SM SCT030 BKN060
TEMPO 2000/2002 5SM -SN BKN020 OVC040
FM200900 28008KT P6SM SKC
BECMG 2014/2016 25012G22KT
BECMG 2021/2023 25010KT RMK NXT FCST BY 200300Z
ATIS : ENG : +1 514-633-3037 FRA : +1 514-633-3034



MET'MAP, your aeronautical weather chart ! - Copyright ORBIFLY December 2007 - Disclaimer

ORBIFLY MET'MAP TEAM :

Programming & Development : Alexandra Zaïnal
Concept & original design : Baudouin d'Aumeries
Assistance for programming : Marc-Olivier Méhu
Technical & hardware support : Manuel Goepfert

Contact : metmap@orbifly.com




SOURCES & CREDITS :

   NOAA